createdAt,value
2022-12-19T00:00:35.119Z,66.85
2022-12-19T00:03:03.220Z,65.79
2022-12-19T00:05:31.314Z,66.20
2022-12-19T00:07:59.167Z,66.68
2022-12-19T00:10:34.355Z,66.30
2022-12-19T00:13:02.323Z,66.85
2022-12-19T00:15:30.126Z,66.06
2022-12-19T00:17:57.945Z,66.62
2022-12-19T00:20:25.843Z,65.69
2022-12-19T00:22:53.672Z,65.85
2022-12-19T00:25:23.021Z,66.07
2022-12-19T00:27:52.772Z,65.01
2022-12-19T00:30:20.770Z,64.80
2022-12-19T00:32:48.717Z,66.05
2022-12-19T00:35:16.776Z,65.73
2022-12-19T00:37:49.619Z,65.85
2022-12-19T00:40:18.440Z,65.74
2022-12-19T00:42:51.746Z,64.87
2022-12-19T00:45:23.001Z,65.58
2022-12-19T00:47:50.935Z,64.95
2022-12-19T00:50:18.833Z,65.94
2022-12-19T00:52:46.635Z,66.38
2022-12-19T00:55:18.834Z,65.14
2022-12-19T00:57:47.234Z,64.84
2022-12-19T01:00:16.631Z,65.71
2022-12-19T01:02:46.413Z,66.36
2022-12-19T01:05:14.370Z,66.07
2022-12-19T01:07:42.387Z,65.66
2022-12-19T01:10:11.066Z,66.77
2022-12-19T01:12:46.665Z,67.49
2022-12-19T01:15:16.692Z,66.37
2022-12-19T01:17:46.234Z,66.97
2022-12-19T01:20:15.538Z,66.07
2022-12-19T01:22:43.523Z,66.21
2022-12-19T01:25:14.569Z,65.34
2022-12-19T01:27:42.398Z,66.31
2022-12-19T01:30:11.788Z,65.89
2022-12-19T01:32:40.198Z,64.55
2022-12-19T01:35:21.349Z,64.90
2022-12-19T01:37:50.559Z,63.93
2022-12-19T01:40:18.369Z,65.81
2022-12-19T01:42:46.188Z,65.82
2022-12-19T01:45:34.036Z,65.11
2022-12-19T01:48:15.370Z,65.18
2022-12-19T01:51:01.031Z,65.13
2022-12-19T01:53:36.208Z,66.62
2022-12-19T01:56:11.640Z,65.88
2022-12-19T01:58:42.713Z,65.35
2022-12-19T02:01:10.665Z,65.67
2022-12-19T02:03:40.601Z,65.84
2022-12-19T02:06:14.635Z,65.69
2022-12-19T02:08:43.069Z,65.34
2022-12-19T02:11:11.113Z,66.40
2022-12-19T02:13:40.754Z,65.06
2022-12-19T02:16:24.757Z,65.41
2022-12-19T02:19:11.797Z,64.18
2022-12-19T02:21:54.723Z,64.01
2022-12-19T02:25:00.860Z,64.84
2022-12-19T02:28:10.926Z,65.06
2022-12-19T02:30:53.787Z,64.06
2022-12-19T02:33:32.478Z,64.18
2022-12-19T02:36:09.118Z,64.09
2022-12-19T02:38:43.335Z,65.31
2022-12-19T02:41:16.755Z,64.19
2022-12-19T02:43:57.272Z,64.47
2022-12-19T02:46:30.986Z,64.44
2022-12-19T02:48:59.454Z,64.28
2022-12-19T02:51:27.633Z,63.54
2022-12-19T02:53:55.581Z,64.76
2022-12-19T02:56:35.451Z,63.62
2022-12-19T02:59:21.633Z,63.36
2022-12-19T03:01:56.382Z,64.11
2022-12-19T03:04:36.302Z,63.71
2022-12-19T03:07:14.278Z,63.24
2022-12-19T03:09:51.908Z,62.42
2022-12-19T03:12:27.577Z,63.17
2022-12-19T03:14:57.613Z,64.67
2022-12-19T03:17:29.832Z,63.87
2022-12-19T03:19:58.375Z,63.34
2022-12-19T03:22:26.295Z,63.62
2022-12-19T03:24:54.173Z,63.23
2022-12-19T03:27:27.529Z,62.81
2022-12-19T03:30:00.926Z,63.84
2022-12-19T03:32:31.825Z,62.78
2022-12-19T03:35:04.112Z,63.76
2022-12-19T03:37:35.423Z,62.98
2022-12-19T03:40:07.539Z,62.64
2022-12-19T03:42:56.652Z,62.79
2022-12-19T03:45:33.037Z,63.79
2022-12-19T03:48:08.866Z,63.05
2022-12-19T03:50:47.777Z,62.42
2022-12-19T03:53:27.374Z,63.49
2022-12-19T03:56:03.027Z,63.16
2022-12-19T03:58:34.824Z,63.46
2022-12-19T04:01:05.869Z,62.47
2022-12-19T04:03:35.395Z,62.76
2022-12-19T04:06:05.617Z,63.99
2022-12-19T04:08:34.931Z,63.71
2022-12-19T04:11:07.983Z,63.73
2022-12-19T04:13:39.815Z,63.30
2022-12-19T04:16:14.600Z,64.38
2022-12-19T04:18:48.794Z,64.01
2022-12-19T04:21:21.285Z,64.90
2022-12-19T04:23:53.904Z,63.97
2022-12-19T04:26:23.124Z,64.30
2022-12-19T04:28:54.198Z,63.36
2022-12-19T04:31:23.301Z,63.11
2022-12-19T04:33:52.667Z,64.06
2022-12-19T04:36:20.584Z,63.46
2022-12-19T04:38:48.512Z,64.70
2022-12-19T04:41:16.401Z,63.26
2022-12-19T04:43:44.371Z,63.02
2022-12-19T04:46:12.308Z,63.92
2022-12-19T04:48:40.250Z,64.12
2022-12-19T04:51:09.704Z,63.68
2022-12-19T04:53:37.662Z,62.72
2022-12-19T04:56:07.147Z,63.30
2022-12-19T04:58:35.144Z,64.82
2022-12-19T05:01:03.362Z,64.42
2022-12-19T05:03:31.290Z,63.94
2022-12-19T05:06:07.552Z,64.55
2022-12-19T05:08:38.363Z,64.07
2022-12-19T05:11:07.636Z,64.04
2022-12-19T05:13:35.856Z,63.63
2022-12-19T05:16:06.005Z,64.62
2022-12-19T05:18:34.055Z,64.54
2022-12-19T05:21:02.299Z,64.31
2022-12-19T05:23:30.317Z,64.58
2022-12-19T05:26:00.713Z,63.85
2022-12-19T05:28:29.041Z,64.15
2022-12-19T05:31:04.922Z,64.19
2022-12-19T05:33:32.850Z,64.81
2022-12-19T05:36:00.785Z,65.32
2022-12-19T05:38:29.282Z,65.29
2022-12-19T05:40:57.241Z,64.35
2022-12-19T05:43:26.665Z,64.17
2022-12-19T05:45:54.615Z,63.22
2022-12-19T05:48:22.596Z,63.08
2022-12-19T05:50:51.010Z,63.19
2022-12-19T05:53:24.561Z,62.74
2022-12-19T05:55:54.114Z,64.13
2022-12-19T05:58:22.047Z,64.49
2022-12-19T06:00:51.297Z,63.51
2022-12-19T06:03:19.276Z,62.37
2022-12-19T06:05:47.352Z,63.01
2022-12-19T06:08:15.228Z,63.52
2022-12-19T06:10:43.107Z,63.74
2022-12-19T06:13:11.011Z,64.44
2022-12-19T06:15:38.911Z,64.07
2022-12-19T06:18:09.001Z,64.08
2022-12-19T06:20:37.381Z,65.16
2022-12-19T06:23:05.520Z,64.25
2022-12-19T06:25:33.493Z,64.36
2022-12-19T06:28:01.366Z,64.03
2022-12-19T06:30:29.625Z,65.34
2022-12-19T06:32:57.493Z,65.39
2022-12-19T06:35:26.753Z,64.71
2022-12-19T06:37:59.399Z,66.31
2022-12-19T06:40:46.343Z,64.82
2022-12-19T06:43:14.205Z,64.00
2022-12-19T06:45:42.083Z,62.94
2022-12-19T06:48:10.037Z,63.48
2022-12-19T06:50:39.258Z,62.58
2022-12-19T06:53:07.119Z,62.88
2022-12-19T06:55:37.220Z,62.28
2022-12-19T06:58:05.277Z,63.13
2022-12-19T07:00:38.034Z,62.57
2022-12-19T07:03:09.331Z,62.34
2022-12-19T07:05:37.515Z,62.01
2022-12-19T07:08:06.984Z,62.17
2022-12-19T07:10:34.870Z,62.15
2022-12-19T07:13:02.939Z,62.78
2022-12-19T07:15:33.031Z,62.13
2022-12-19T07:18:01.471Z,61.92
2022-12-19T07:20:31.445Z,61.21
2022-12-19T07:22:59.401Z,62.13
2022-12-19T07:25:28.663Z,62.03
2022-12-19T07:27:56.743Z,62.30
2022-12-19T07:30:24.595Z,62.24
2022-12-19T07:32:53.105Z,61.05
2022-12-19T07:35:24.423Z,60.71
2022-12-19T07:37:52.391Z,61.95
2022-12-19T07:40:20.321Z,60.69
2022-12-19T07:42:49.610Z,61.67
2022-12-19T07:45:17.675Z,61.69
2022-12-19T07:47:48.412Z,61.06
2022-12-19T07:50:16.343Z,60.75
2022-12-19T07:52:44.786Z,60.17
2022-12-19T07:55:13.521Z,61.25
2022-12-19T07:57:41.448Z,59.83
2022-12-19T08:00:12.332Z,60.71
2022-12-19T08:02:40.511Z,60.51
2022-12-19T08:05:08.866Z,60.40
2022-12-19T08:07:36.829Z,59.87
2022-12-19T08:10:06.811Z,60.44
2022-12-19T08:12:36.029Z,60.22
2022-12-19T08:15:05.817Z,59.45
2022-12-19T08:17:38.609Z,58.90
2022-12-19T08:20:08.252Z,59.58
2022-12-19T08:22:36.460Z,58.67
2022-12-19T08:25:04.594Z,59.25
2022-12-19T08:27:32.436Z,59.92
2022-12-19T08:30:00.318Z,58.83
2022-12-19T08:32:29.642Z,59.47
2022-12-19T08:34:58.895Z,58.47
2022-12-19T08:37:26.763Z,58.31
2022-12-19T08:39:54.830Z,58.36
2022-12-19T08:42:22.676Z,57.96
2022-12-19T08:44:50.522Z,58.74
2022-12-19T08:47:18.470Z,57.77
2022-12-19T08:49:46.316Z,57.56
2022-12-19T08:52:15.542Z,57.87
2022-12-19T08:54:45.452Z,58.95
2022-12-19T08:57:13.347Z,58.58
2022-12-19T08:59:41.204Z,58.37
2022-12-19T09:02:11.071Z,58.06
2022-12-19T09:05:59.415Z,58.01
2022-12-19T09:07:29.189Z,57.37
2022-12-19T09:09:57.108Z,58.20
2022-12-19T09:12:25.095Z,56.96
2022-12-19T09:14:52.981Z,58.03
2022-12-19T09:17:20.931Z,57.21
2022-12-19T09:19:48.861Z,57.87
2022-12-19T09:22:17.618Z,57.62
2022-12-19T09:24:47.139Z,57.16
2022-12-19T09:27:15.091Z,56.93
2022-12-19T09:29:43.672Z,56.44
2022-12-19T09:32:11.523Z,56.06
2022-12-19T09:34:39.754Z,55.60
2022-12-19T09:37:16.462Z,56.29
2022-12-19T09:39:47.493Z,56.51
2022-12-19T09:42:26.420Z,56.27
2022-12-19T09:45:09.630Z,55.89
2022-12-19T09:47:45.025Z,55.66
2022-12-19T09:50:27.111Z,55.23
2022-12-19T09:53:00.601Z,54.81
2022-12-19T09:55:35.938Z,55.06
2022-12-19T09:58:09.249Z,55.70
2022-12-19T10:00:42.940Z,55.97
2022-12-19T10:03:21.827Z,54.72
2022-12-19T10:06:34.795Z,54.20
2022-12-19T10:09:04.873Z,54.95
2022-12-19T10:12:46.214Z,55.23
2022-12-19T10:14:52.327Z,53.76
2022-12-19T10:17:29.892Z,54.84
2022-12-19T10:20:19.253Z,53.74
2022-12-19T10:22:57.283Z,54.62
2022-12-19T10:25:42.778Z,53.62
2022-12-19T10:28:21.798Z,53.21
2022-12-19T10:31:01.499Z,53.71
2022-12-19T10:33:42.276Z,53.69
2022-12-19T10:36:12.039Z,54.27
2022-12-19T10:38:46.311Z,54.12
2022-12-19T10:41:23.542Z,53.63
2022-12-19T10:44:02.364Z,53.06
2022-12-19T10:46:39.446Z,53.34
2022-12-19T10:49:17.050Z,53.10
2022-12-19T10:51:54.911Z,53.19
2022-12-19T10:54:27.543Z,52.71
2022-12-19T10:57:19.228Z,52.74
2022-12-19T10:59:58.101Z,53.72
2022-12-19T11:02:36.950Z,53.21
2022-12-19T11:05:20.753Z,52.72
2022-12-19T11:08:01.590Z,53.97
2022-12-19T11:11:54.967Z,53.32
2022-12-19T11:16:05.481Z,53.93
2022-12-19T11:18:09.910Z,54.54
2022-12-19T11:29:32.466Z,56.98
2022-12-19T11:29:38.395Z,54.78
2022-12-19T11:30:09.729Z,55.41
2022-12-19T11:30:42.809Z,56.14
2022-12-19T11:33:57.145Z,58.38
2022-12-19T11:36:31.661Z,59.88
2022-12-19T11:39:01.003Z,58.92
2022-12-19T11:41:34.714Z,60.42
2022-12-19T11:44:09.834Z,60.30
2022-12-19T11:46:45.653Z,60.56
2022-12-19T11:49:24.435Z,62.86
2022-12-19T11:52:29.448Z,61.40
2022-12-19T11:55:04.510Z,62.57
2022-12-19T11:57:33.043Z,63.63
2022-12-19T12:00:05.071Z,63.71
2022-12-19T12:03:03.040Z,63.63
2022-12-19T12:05:45.721Z,64.55
2022-12-19T12:10:05.252Z,64.88
2022-12-19T12:16:05.446Z,66.38
2022-12-19T12:27:58.056Z,66.36
2022-12-19T12:30:10.099Z,67.81
2022-12-19T12:31:16.502Z,68.65
2022-12-19T12:31:21.386Z,69.53
2022-12-19T12:31:51.388Z,68.64
2022-12-19T12:32:05.580Z,69.87
2022-12-19T12:35:51.083Z,71.41
2022-12-19T12:38:37.373Z,72.57
2022-12-19T12:41:20.389Z,71.93
2022-12-19T12:44:06.012Z,73.13
2022-12-19T12:46:38.485Z,73.30
2022-12-19T12:49:24.907Z,74.72
2022-12-19T12:51:53.401Z,74.64
2022-12-19T12:54:26.923Z,74.41
2022-12-19T12:56:56.003Z,75.55
2022-12-19T12:59:25.764Z,75.63
2022-12-19T13:01:55.647Z,76.01
2022-12-19T13:04:34.105Z,75.26
2022-12-19T13:07:15.395Z,76.03
2022-12-19T13:09:45.156Z,76.27
2022-12-19T13:12:39.465Z,76.58
2022-12-19T13:15:32.574Z,77.03
2022-12-19T13:18:31.217Z,78.05
2022-12-19T13:21:00.990Z,78.02
2022-12-19T13:23:44.991Z,77.65
2022-12-19T13:26:49.374Z,77.72
2022-12-19T13:29:58.082Z,78.70
2022-12-19T13:32:26.993Z,78.06
2022-12-19T13:35:02.447Z,78.56
2022-12-19T13:39:50.481Z,78.86
2022-12-19T13:40:51.634Z,78.79
2022-12-19T13:43:40.383Z,78.78
2022-12-19T13:46:40.212Z,78.90
2022-12-19T13:49:14.436Z,78.49
2022-12-19T13:51:55.814Z,79.42
2022-12-19T13:54:28.417Z,80.34
2022-12-19T13:57:01.045Z,80.26
2022-12-19T13:59:40.250Z,80.80
2022-12-19T14:02:18.903Z,80.11
2022-12-19T14:04:47.131Z,80.15
2022-12-19T14:07:36.210Z,81.47
2022-12-19T14:11:41.014Z,80.42
2022-12-19T14:13:54.077Z,80.94
2022-12-19T14:16:05.065Z,81.95
2022-12-19T14:18:43.064Z,81.03
2022-12-19T14:22:07.898Z,81.28
2022-12-19T14:24:11.767Z,81.63
2022-12-19T14:28:18.955Z,81.03
2022-12-19T14:30:26.130Z,81.05
2022-12-19T14:33:40.659Z,80.73
2022-12-19T14:36:08.840Z,81.26
2022-12-19T14:39:19.485Z,80.46
2022-12-19T14:41:08.049Z,81.61
2022-12-19T14:43:57.550Z,80.57
2022-12-19T14:53:34.253Z,80.69
2022-12-19T14:54:13.169Z,80.97
2022-12-19T14:54:31.209Z,81.13
2022-12-19T14:56:08.549Z,81.30
2022-12-19T14:58:53.233Z,81.81
2022-12-19T15:01:24.231Z,80.99
2022-12-19T15:04:50.501Z,81.14
2022-12-19T15:07:09.586Z,82.04
2022-12-19T15:11:00.399Z,82.22
2022-12-19T15:14:48.758Z,83.52
2022-12-19T15:15:45.890Z,82.51
2022-12-19T15:18:40.060Z,81.63
2022-12-19T15:21:11.103Z,82.60
2022-12-19T15:23:39.776Z,82.31
2022-12-19T15:26:15.147Z,81.34
2022-12-19T15:28:45.216Z,82.29
2022-12-19T15:31:29.722Z,81.87
2022-12-19T15:36:45.988Z,81.37
2022-12-19T15:39:15.061Z,82.10
2022-12-19T15:41:46.627Z,81.70
2022-12-19T15:44:19.634Z,82.13
2022-12-19T15:46:49.319Z,83.50
2022-12-19T15:49:18.906Z,82.84
2022-12-19T15:51:47.492Z,82.00
2022-12-19T15:54:47.254Z,82.81
2022-12-19T15:57:05.318Z,83.53
2022-12-19T15:59:38.422Z,84.35
2022-12-19T16:02:17.570Z,85.08
2022-12-19T16:04:47.334Z,83.16
2022-12-19T16:07:20.051Z,82.92
2022-12-19T16:09:47.968Z,83.28
2022-12-19T16:12:20.245Z,82.42
2022-12-19T16:14:50.222Z,84.22
2022-12-19T16:17:21.221Z,84.29
2022-12-19T16:19:49.838Z,83.28
2022-12-19T16:22:20.497Z,83.51
2022-12-19T16:24:48.431Z,83.59
2022-12-19T16:27:24.761Z,84.26
2022-12-19T16:29:54.016Z,84.65
2022-12-19T16:32:24.501Z,83.87
2022-12-19T16:34:54.390Z,84.04
2022-12-19T16:37:27.189Z,83.82
2022-12-19T16:39:56.598Z,83.20
2022-12-19T16:42:25.838Z,83.58
2022-12-19T16:44:54.263Z,83.79
2022-12-19T16:47:22.311Z,82.58
2022-12-19T16:49:50.265Z,83.33
2022-12-19T16:52:18.155Z,82.85
2022-12-19T16:54:46.020Z,82.82
2022-12-19T16:57:20.134Z,83.39
2022-12-19T16:59:49.894Z,83.72
2022-12-19T17:02:41.641Z,83.90
2022-12-19T17:05:16.722Z,83.86
2022-12-19T17:07:44.746Z,83.97
2022-12-19T17:10:12.805Z,83.40
2022-12-19T17:12:42.812Z,83.35
2022-12-19T17:15:24.160Z,82.34
2022-12-19T17:17:54.212Z,84.49
2022-12-19T17:20:24.411Z,83.61
2022-12-19T17:22:52.461Z,84.06
2022-12-19T17:25:23.295Z,84.71
2022-12-19T17:27:52.292Z,83.56
2022-12-19T17:30:22.795Z,82.89
2022-12-19T17:32:53.071Z,84.19
2022-12-19T17:35:27.729Z,84.09
2022-12-19T17:37:57.849Z,82.70
2022-12-19T17:40:27.446Z,83.31
2022-12-19T17:42:56.171Z,83.82
2022-12-19T17:45:26.119Z,83.65
2022-12-19T17:48:02.091Z,83.69
2022-12-19T17:50:35.331Z,84.40
2022-12-19T17:53:03.223Z,83.53
2022-12-19T17:55:31.848Z,83.98
2022-12-19T17:57:59.979Z,84.20
2022-12-19T18:00:32.350Z,83.04
2022-12-19T18:03:04.901Z,84.11
2022-12-19T18:05:35.833Z,84.02
2022-12-19T18:08:04.916Z,83.66
2022-12-19T18:10:33.467Z,83.66
2022-12-19T18:13:01.460Z,84.66
2022-12-19T18:15:31.086Z,83.93
2022-12-19T18:18:00.009Z,85.17
2022-12-19T18:20:32.111Z,84.61
2022-12-19T18:23:01.693Z,85.13
2022-12-19T18:25:32.012Z,85.21
2022-12-19T18:27:59.977Z,84.34
2022-12-19T18:30:27.904Z,85.10
2022-12-19T18:32:59.790Z,84.15
2022-12-19T18:35:32.593Z,85.59
2022-12-19T18:38:02.713Z,83.56
2022-12-19T18:40:31.921Z,83.80
2022-12-19T18:43:00.294Z,84.95
2022-12-19T18:45:33.333Z,84.51
2022-12-19T18:48:05.208Z,84.12
2022-12-19T18:50:33.184Z,85.31
2022-12-19T18:53:02.045Z,84.42
2022-12-19T18:55:32.573Z,83.99
2022-12-19T18:58:00.640Z,83.93
2022-12-19T19:00:29.309Z,84.65
2022-12-19T19:03:00.444Z,83.27
2022-12-19T19:05:32.449Z,84.47
2022-12-19T19:08:12.994Z,84.19
2022-12-19T19:10:40.942Z,82.94
2022-12-19T19:13:12.149Z,82.78
2022-12-19T19:15:46.522Z,82.85
2022-12-19T19:18:15.962Z,82.59
2022-12-19T19:20:46.599Z,84.03
2022-12-19T19:23:15.357Z,82.50
2022-12-19T19:25:43.560Z,82.92
2022-12-19T19:28:11.555Z,83.52
2022-12-19T19:30:40.682Z,82.71
2022-12-19T19:33:14.131Z,83.07
2022-12-19T19:35:43.799Z,82.57
2022-12-19T19:38:14.550Z,83.24
2022-12-19T19:40:43.374Z,82.86
2022-12-19T19:43:11.340Z,83.20
2022-12-19T19:45:43.181Z,84.29
2022-12-19T19:48:12.159Z,83.57
2022-12-19T19:50:40.173Z,83.37
2022-12-19T19:53:08.422Z,83.41
2022-12-19T19:55:37.759Z,84.04
2022-12-19T19:58:05.680Z,83.31
2022-12-19T20:00:33.560Z,84.05
2022-12-19T20:03:07.236Z,83.96
2022-12-19T20:05:37.525Z,83.99
2022-12-19T20:08:06.013Z,84.27
2022-12-19T20:10:34.011Z,83.33
2022-12-19T20:13:03.474Z,83.47
2022-12-19T20:15:31.769Z,83.79
2022-12-19T20:18:00.192Z,84.51
2022-12-19T20:20:28.200Z,83.15
2022-12-19T20:22:56.116Z,82.21
2022-12-19T20:25:24.169Z,81.88
2022-12-19T20:27:52.379Z,82.96
2022-12-19T20:30:22.151Z,82.79
2022-12-19T20:32:49.996Z,81.33
2022-12-19T20:35:18.072Z,81.69
2022-12-19T20:37:45.945Z,80.46
2022-12-19T20:40:14.352Z,82.18
2022-12-19T20:42:42.345Z,81.60
2022-12-19T20:45:10.973Z,81.50
2022-12-19T20:47:40.246Z,80.34
2022-12-19T20:50:09.401Z,79.94
2022-12-19T20:52:37.554Z,80.72
2022-12-19T20:55:06.168Z,80.87
2022-12-19T20:57:34.295Z,80.82
2022-12-19T21:00:02.302Z,80.97
2022-12-19T21:02:46.262Z,80.67
2022-12-19T21:05:20.549Z,80.21
2022-12-19T21:07:48.754Z,81.39
2022-12-19T21:10:16.801Z,80.98
2022-12-19T21:12:47.829Z,80.58
2022-12-19T21:15:16.650Z,81.12
2022-12-19T21:17:44.785Z,81.14
2022-12-19T21:20:13.346Z,81.41
2022-12-19T21:22:42.669Z,81.39
2022-12-19T21:25:10.661Z,80.31
2022-12-19T21:27:38.556Z,80.88
2022-12-19T21:30:07.210Z,79.49
2022-12-19T21:32:35.104Z,80.54
2022-12-19T21:35:03.017Z,81.26
2022-12-19T21:41:37.997Z,80.65
2022-12-19T21:44:06.028Z,80.78
2022-12-19T21:46:34.740Z,80.30
2022-12-19T21:49:03.625Z,80.79
2022-12-19T21:51:32.809Z,80.50
2022-12-19T21:54:02.112Z,79.52
2022-12-19T21:56:32.190Z,80.26
2022-12-19T21:59:03.056Z,80.40
2022-12-19T22:01:31.704Z,80.10
2022-12-19T22:04:00.787Z,80.34
2022-12-19T22:06:31.299Z,78.99
2022-12-19T22:09:00.243Z,79.47
2022-12-19T22:11:29.784Z,79.67
2022-12-19T22:14:01.247Z,79.41
2022-12-19T22:16:29.618Z,78.98
2022-12-19T22:18:57.810Z,79.97
2022-12-19T22:21:26.789Z,79.27
2022-12-19T22:23:57.985Z,79.41
2022-12-19T22:26:27.601Z,79.21
2022-12-19T22:28:56.893Z,78.02
2022-12-19T22:31:28.473Z,78.85
2022-12-19T22:33:59.015Z,77.97
2022-12-19T22:36:29.123Z,78.91
2022-12-19T22:38:58.705Z,78.38
2022-12-19T22:41:27.006Z,78.32
2022-12-19T22:43:55.705Z,78.75
2022-12-19T22:46:27.247Z,79.38
2022-12-19T22:48:58.203Z,77.98
2022-12-19T22:51:27.551Z,78.53
2022-12-19T22:53:55.941Z,77.77
2022-12-19T22:56:25.650Z,77.49
2022-12-19T22:58:55.309Z,76.51
2022-12-19T23:01:25.841Z,78.17
2022-12-19T23:03:57.423Z,77.78
2022-12-19T23:06:27.490Z,77.14
2022-12-19T23:08:55.456Z,77.06
2022-12-19T23:11:26.526Z,76.52
2022-12-19T23:13:54.901Z,77.31
2022-12-19T23:16:22.847Z,77.16
2022-12-19T23:18:50.838Z,78.73
2022-12-19T23:21:24.611Z,76.85
2022-12-19T23:23:56.040Z,76.42
2022-12-19T23:26:26.563Z,76.83
2022-12-19T23:28:56.871Z,78.05
2022-12-19T23:31:25.836Z,76.33
2022-12-19T23:33:54.065Z,76.50
2022-12-19T23:37:00.466Z,76.80
2022-12-19T23:39:12.338Z,77.51
2022-12-19T23:41:40.712Z,76.84
2022-12-19T23:44:09.216Z,76.86
2022-12-19T23:46:37.985Z,75.67
2022-12-19T23:49:05.988Z,76.81
2022-12-19T23:51:35.260Z,76.71
2022-12-19T23:54:03.296Z,76.12
2022-12-19T23:56:33.255Z,75.56
2022-12-19T23:59:01.682Z,75.24
